sensor_id;sensor_type;location;lat;lon;timestamp;pressure;altitude;pressure_sealevel;temperature;humidity
6433;BME280;3249;42.690;23.260;2023-05-21T00:00:12;94156.09;;;12.94;100.00
6433;BME280;3249;42.690;23.260;2023-05-21T00:02:42;94155.09;;;12.95;100.00
6433;BME280;3249;42.690;23.260;2023-05-21T00:05:13;94150.59;;;12.91;100.00
6433;BME280;3249;42.690;23.260;2023-05-21T00:07:43;94151.16;;;12.93;100.00
6433;BME280;3249;42.690;23.260;2023-05-21T00:10:12;94149.06;;;12.90;100.00
6433;BME280;3249;42.690;23.260;2023-05-21T00:12:41;94155.13;;;12.84;100.00
6433;BME280;3249;42.690;23.260;2023-05-21T00:15:11;94138.00;;;12.50;100.00
6433;BME280;3249;42.690;23.260;2023-05-21T00:17:40;94138.50;;;12.35;100.00
6433;BME280;3249;42.690;23.260;2023-05-21T00:20:13;94145.44;;;12.07;100.00
6433;BME280;3249;42.690;23.260;2023-05-21T00:22:42;94136.41;;;12.21;100.00
6433;BME280;3249;42.690;23.260;2023-05-21T00:25:13;94135.66;;;12.09;100.00
6433;BME280;3249;42.690;23.260;2023-05-21T00:27:42;94103.63;;;11.93;100.00
6433;BME280;3249;42.690;23.260;2023-05-21T00:30:11;94129.97;;;12.07;100.00
6433;BME280;3249;42.690;23.260;2023-05-21T00:32:40;94136.53;;;12.14;100.00
6433;BME280;3249;42.690;23.260;2023-05-21T00:35:09;94137.53;;;12.25;100.00
6433;BME280;3249;42.690;23.260;2023-05-21T00:37:41;94132.84;;;12.22;100.00
6433;BME280;3249;42.690;23.260;2023-05-21T00:40:12;94133.81;;;12.21;100.00
6433;BME280;3249;42.690;23.260;2023-05-21T00:42:42;94126.44;;;12.13;100.00
6433;BME280;3249;42.690;23.260;2023-05-21T00:45:13;94128.25;;;12.12;100.00
6433;BME280;3249;42.690;23.260;2023-05-21T00:47:42;94114.88;;;12.15;100.00
6433;BME280;3249;42.690;23.260;2023-05-21T00:50:13;94115.19;;;11.91;100.00
6433;BME280;3249;42.690;23.260;2023-05-21T00:52:45;94121.13;;;11.91;100.00
6433;BME280;3249;42.690;23.260;2023-05-21T00:55:14;94116.75;;;11.92;100.00
6433;BME280;3249;42.690;23.260;2023-05-21T00:57:44;94123.03;;;11.96;100.00
6433;BME280;3249;42.690;23.260;2023-05-21T01:00:14;94107.03;;;11.48;100.00
6433;BME280;3249;42.690;23.260;2023-05-21T01:02:44;94115.66;;;11.42;100.00
6433;BME280;3249;42.690;23.260;2023-05-21T01:05:14;94111.38;;;11.47;100.00
6433;BME280;3249;42.690;23.260;2023-05-21T01:07:46;94114.75;;;11.48;100.00
6433;BME280;3249;42.690;23.260;2023-05-21T01:10:15;94109.75;;;11.64;100.00
6433;BME280;3249;42.690;23.260;2023-05-21T01:12:45;94111.63;;;11.69;100.00
6433;BME280;3249;42.690;23.260;2023-05-21T01:15:15;94110.59;;;11.70;100.00
6433;BME280;3249;42.690;23.260;2023-05-21T01:17:45;94078.78;;;11.53;100.00
6433;BME280;3249;42.690;23.260;2023-05-21T01:20:15;94100.84;;;11.49;100.00
6433;BME280;3249;42.690;23.260;2023-05-21T01:22:51;94092.94;;;11.39;100.00
6433;BME280;3249;42.690;23.260;2023-05-21T01:25:23;94101.53;;;11.33;100.00
6433;BME280;3249;42.690;23.260;2023-05-21T01:27:53;94100.97;;;11.19;100.00
6433;BME280;3249;42.690;23.260;2023-05-21T01:30:23;94088.44;;;11.23;100.00
6433;BME280;3249;42.690;23.260;2023-05-21T01:32:57;94064.13;;;11.19;100.00
6433;BME280;3249;42.690;23.260;2023-05-21T01:35:32;94101.19;;;11.52;100.00
6433;BME280;3249;42.690;23.260;2023-05-21T01:38:11;94096.03;;;11.52;100.00
6433;BME280;3249;42.690;23.260;2023-05-21T01:40:46;94096.50;;;11.61;100.00
6433;BME280;3249;42.690;23.260;2023-05-21T01:43:24;94102.22;;;11.40;100.00
6433;BME280;3249;42.690;23.260;2023-05-21T01:45:58;94093.47;;;11.18;100.00
6433;BME280;3249;42.690;23.260;2023-05-21T01:48:28;94090.66;;;11.19;100.00
6433;BME280;3249;42.690;23.260;2023-05-21T01:51:00;94096.19;;;11.23;100.00
6433;BME280;3249;42.690;23.260;2023-05-21T01:53:32;94092.00;;;11.45;100.00
6433;BME280;3249;42.690;23.260;2023-05-21T01:56:04;94054.06;;;11.17;100.00
6433;BME280;3249;42.690;23.260;2023-05-21T01:58:33;94084.41;;;11.38;100.00
6433;BME280;3249;42.690;23.260;2023-05-21T02:01:02;94088.19;;;11.47;100.00
6433;BME280;3249;42.690;23.260;2023-05-21T02:03:31;94086.38;;;11.59;100.00
6433;BME280;3249;42.690;23.260;2023-05-21T02:06:00;94080.59;;;11.64;100.00
6433;BME280;3249;42.690;23.260;2023-05-21T02:08:32;94077.31;;;11.57;100.00
6433;BME280;3249;42.690;23.260;2023-05-21T02:11:01;94086.31;;;11.43;100.00
6433;BME280;3249;42.690;23.260;2023-05-21T02:13:30;94076.66;;;11.50;100.00
6433;BME280;3249;42.690;23.260;2023-05-21T02:15:59;94031.34;;;11.03;100.00
6433;BME280;3249;42.690;23.260;2023-05-21T02:18:28;94070.94;;;11.36;100.00
6433;BME280;3249;42.690;23.260;2023-05-21T02:20:59;94074.97;;;11.32;100.00
6433;BME280;3249;42.690;23.260;2023-05-21T02:23:28;94082.38;;;11.40;100.00
6433;BME280;3249;42.690;23.260;2023-05-21T02:25:59;94079.78;;;11.40;100.00
6433;BME280;3249;42.690;23.260;2023-05-21T02:28:29;94076.66;;;11.38;100.00
6433;BME280;3249;42.690;23.260;2023-05-21T02:30:58;94073.19;;;11.33;100.00
6433;BME280;3249;42.690;23.260;2023-05-21T02:33:27;94074.00;;;10.99;100.00
6433;BME280;3249;42.690;23.260;2023-05-21T02:35:56;94072.84;;;11.18;100.00
6433;BME280;3249;42.690;23.260;2023-05-21T02:38:25;94077.34;;;11.22;100.00
6433;BME280;3249;42.690;23.260;2023-05-21T02:40:54;94077.13;;;11.35;100.00
6433;BME280;3249;42.690;23.260;2023-05-21T02:43:26;94072.19;;;11.45;100.00
6433;BME280;3249;42.690;23.260;2023-05-21T02:45:55;94071.50;;;11.50;100.00
6433;BME280;3249;42.690;23.260;2023-05-21T02:48:25;94073.41;;;10.97;100.00
6433;BME280;3249;42.690;23.260;2023-05-21T02:50:54;94065.47;;;11.10;100.00
6433;BME280;3249;42.690;23.260;2023-05-21T02:53:23;94069.97;;;11.03;100.00
6433;BME280;3249;42.690;23.260;2023-05-21T02:55:52;94065.25;;;11.00;100.00
6433;BME280;3249;42.690;23.260;2023-05-21T02:58:21;94066.78;;;10.78;100.00
6433;BME280;3249;42.690;23.260;2023-05-21T03:00:53;94059.38;;;10.70;100.00
6433;BME280;3249;42.690;23.260;2023-05-21T03:03:22;94063.78;;;10.81;100.00
6433;BME280;3249;42.690;23.260;2023-05-21T03:05:51;94064.47;;;10.88;100.00
6433;BME280;3249;42.690;23.260;2023-05-21T03:08:21;94065.66;;;10.74;100.00
6433;BME280;3249;42.690;23.260;2023-05-21T03:10:51;94074.00;;;10.99;100.00
6433;BME280;3249;42.690;23.260;2023-05-21T03:13:20;94072.22;;;11.11;100.00
6433;BME280;3249;42.690;23.260;2023-05-21T03:15:49;94079.69;;;11.12;100.00
6433;BME280;3249;42.690;23.260;2023-05-21T03:18:23;94086.22;;;11.15;100.00
6433;BME280;3249;42.690;23.260;2023-05-21T03:20:54;94081.06;;;11.15;100.00
6433;BME280;3249;42.690;23.260;2023-05-21T03:23:23;94081.50;;;11.12;100.00
6433;BME280;3249;42.690;23.260;2023-05-21T03:25:53;94072.75;;;11.13;100.00
6433;BME280;3249;42.690;23.260;2023-05-21T03:28:22;94078.00;;;11.18;100.00
6433;BME280;3249;42.690;23.260;2023-05-21T03:30:51;94084.47;;;10.74;100.00
6433;BME280;3249;42.690;23.260;2023-05-21T03:33:32;94088.53;;;11.05;100.00
6433;BME280;3249;42.690;23.260;2023-05-21T03:36:12;94088.00;;;11.14;100.00
6433;BME280;3249;42.690;23.260;2023-05-21T03:38:41;94088.78;;;11.15;100.00
6433;BME280;3249;42.690;23.260;2023-05-21T03:41:11;94087.66;;;11.22;100.00
6433;BME280;3249;42.690;23.260;2023-05-21T03:43:43;94084.41;;;11.38;100.00
6433;BME280;3249;42.690;23.260;2023-05-21T03:46:13;94079.69;;;11.47;100.00
6433;BME280;3249;42.690;23.260;2023-05-21T03:49:02;94085.03;;;11.57;100.00
6433;BME280;3249;42.690;23.260;2023-05-21T03:51:33;94082.03;;;11.60;100.00
6433;BME280;3249;42.690;23.260;2023-05-21T03:54:03;94080.25;;;11.49;100.00
6433;BME280;3249;42.690;23.260;2023-05-21T03:56:35;94083.84;;;11.71;100.00
6433;BME280;3249;42.690;23.260;2023-05-21T03:59:04;94086.28;;;11.77;100.00
6433;BME280;3249;42.690;23.260;2023-05-21T04:01:33;94089.41;;;11.91;100.00
6433;BME280;3249;42.690;23.260;2023-05-21T04:04:06;94077.69;;;11.60;100.00
6433;BME280;3249;42.690;23.260;2023-05-21T04:06:36;94084.25;;;11.91;100.00
6433;BME280;3249;42.690;23.260;2023-05-21T04:09:09;94075.66;;;12.02;100.00
6433;BME280;3249;42.690;23.260;2023-05-21T04:11:38;94075.56;;;12.08;100.00
6433;BME280;3249;42.690;23.260;2023-05-21T04:14:07;94078.81;;;12.04;100.00
6433;BME280;3249;42.690;23.260;2023-05-21T04:16:36;94082.34;;;12.26;100.00
6433;BME280;3249;42.690;23.260;2023-05-21T04:19:11;94083.16;;;12.43;100.00
6433;BME280;3249;42.690;23.260;2023-05-21T04:21:40;94073.63;;;12.60;100.00
6433;BME280;3249;42.690;23.260;2023-05-21T04:24:11;94086.78;;;12.75;100.00
6433;BME280;3249;42.690;23.260;2023-05-21T04:27:03;94088.31;;;12.87;100.00
6433;BME280;3249;42.690;23.260;2023-05-21T04:29:34;94083.50;;;12.96;100.00
6433;BME280;3249;42.690;23.260;2023-05-21T04:32:08;94086.38;;;13.11;100.00
6433;BME280;3249;42.690;23.260;2023-05-21T04:34:42;94088.56;;;13.19;100.00
6433;BME280;3249;42.690;23.260;2023-05-21T04:37:11;94081.66;;;13.08;100.00
6433;BME280;3249;42.690;23.260;2023-05-21T04:39:42;94087.16;;;13.11;100.00
6433;BME280;3249;42.690;23.260;2023-05-21T04:42:13;94083.13;;;13.37;100.00
6433;BME280;3249;42.690;23.260;2023-05-21T04:44:44;94084.75;;;13.43;100.00
6433;BME280;3249;42.690;23.260;2023-05-21T04:47:13;94058.06;;;13.37;100.00
6433;BME280;3249;42.690;23.260;2023-05-21T04:49:45;94092.84;;;13.68;100.00
6433;BME280;3249;42.690;23.260;2023-05-21T04:52:16;94094.78;;;13.77;100.00
6433;BME280;3249;42.690;23.260;2023-05-21T04:54:45;94080.91;;;13.83;100.00
6433;BME280;3249;42.690;23.260;2023-05-21T04:57:14;94079.28;;;13.99;100.00
6433;BME280;3249;42.690;23.260;2023-05-21T04:59:43;94087.69;;;14.11;100.00
6433;BME280;3249;42.690;23.260;2023-05-21T05:02:14;94086.66;;;13.90;100.00
6433;BME280;3249;42.690;23.260;2023-05-21T05:04:46;94075.31;;;13.70;100.00
6433;BME280;3249;42.690;23.260;2023-05-21T05:07:15;94083.75;;;13.82;100.00
6433;BME280;3249;42.690;23.260;2023-05-21T05:09:44;94075.59;;;13.95;100.00
6433;BME280;3249;42.690;23.260;2023-05-21T05:12:13;94091.84;;;13.90;100.00
6433;BME280;3249;42.690;23.260;2023-05-21T05:14:42;94090.22;;;13.63;100.00
6433;BME280;3249;42.690;23.260;2023-05-21T05:17:11;94082.06;;;13.54;100.00
6433;BME280;3249;42.690;23.260;2023-05-21T05:19:45;94089.75;;;13.49;100.00
6433;BME280;3249;42.690;23.260;2023-05-21T05:22:15;94085.44;;;13.55;100.00
6433;BME280;3249;42.690;23.260;2023-05-21T05:24:44;94083.72;;;13.60;100.00
6433;BME280;3249;42.690;23.260;2023-05-21T05:27:13;94088.03;;;13.55;100.00
6433;BME280;3249;42.690;23.260;2023-05-21T05:29:43;94095.44;;;13.68;100.00
6433;BME280;3249;42.690;23.260;2023-05-21T05:32:12;94088.66;;;13.62;100.00
6433;BME280;3249;42.690;23.260;2023-05-21T05:34:41;94089.75;;;13.66;100.00
6433;BME280;3249;42.690;23.260;2023-05-21T05:37:13;94086.50;;;13.75;100.00
6433;BME280;3249;42.690;23.260;2023-05-21T05:39:43;94087.22;;;13.71;100.00
6433;BME280;3249;42.690;23.260;2023-05-21T05:42:13;94058.28;;;13.74;100.00
6433;BME280;3249;42.690;23.260;2023-05-21T05:44:42;94083.78;;;13.87;100.00
6433;BME280;3249;42.690;23.260;2023-05-21T05:47:11;94083.84;;;13.92;100.00
6433;BME280;3249;42.690;23.260;2023-05-21T05:49:40;94080.50;;;14.13;100.00
6433;BME280;3249;42.690;23.260;2023-05-21T05:52:09;94083.56;;;14.32;100.00
6433;BME280;3249;42.690;23.260;2023-05-21T05:54:41;94073.28;;;14.42;100.00
6433;BME280;3249;42.690;23.260;2023-05-21T05:57:10;94087.44;;;14.56;100.00
6433;BME280;3249;42.690;23.260;2023-05-21T05:59:39;94063.78;;;14.47;100.00
6433;BME280;3249;42.690;23.260;2023-05-21T06:02:08;94090.56;;;14.84;100.00
6433;BME280;3249;42.690;23.260;2023-05-21T06:04:37;94086.66;;;15.13;100.00
6433;BME280;3249;42.690;23.260;2023-05-21T06:07:25;94085.97;;;15.28;100.00
6433;BME280;3249;42.690;23.260;2023-05-21T06:09:59;94089.97;;;15.40;100.00
6433;BME280;3249;42.690;23.260;2023-05-21T06:12:27;94089.00;;;15.51;100.00
6433;BME280;3249;42.690;23.260;2023-05-21T06:14:57;94088.56;;;15.64;100.00
6433;BME280;3249;42.690;23.260;2023-05-21T06:17:27;94091.31;;;15.94;100.00
6433;BME280;3249;42.690;23.260;2023-05-21T06:19:56;94083.50;;;15.94;100.00
6433;BME280;3249;42.690;23.260;2023-05-21T06:22:26;94082.53;;;16.05;100.00
6433;BME280;3249;42.690;23.260;2023-05-21T06:24:58;94092.13;;;16.05;100.00
6433;BME280;3249;42.690;23.260;2023-05-21T06:27:27;94084.13;;;16.16;100.00
6433;BME280;3249;42.690;23.260;2023-05-21T06:29:58;94088.44;;;16.47;100.00
6433;BME280;3249;42.690;23.260;2023-05-21T06:32:28;94075.84;;;16.24;100.00
6433;BME280;3249;42.690;23.260;2023-05-21T06:34:57;94080.47;;;16.07;100.00
6433;BME280;3249;42.690;23.260;2023-05-21T06:37:27;94087.16;;;15.98;100.00
6433;BME280;3249;42.690;23.260;2023-05-21T06:39:59;94086.34;;;15.88;100.00
6433;BME280;3249;42.690;23.260;2023-05-21T06:42:31;94054.31;;;15.67;100.00
6433;BME280;3249;42.690;23.260;2023-05-21T06:45:18;94079.34;;;15.88;100.00
6433;BME280;3249;42.690;23.260;2023-05-21T06:47:51;94070.25;;;15.86;100.00
6433;BME280;3249;42.690;23.260;2023-05-21T06:50:20;94071.28;;;15.85;100.00
6433;BME280;3249;42.690;23.260;2023-05-21T06:52:50;94079.44;;;16.18;100.00
6433;BME280;3249;42.690;23.260;2023-05-21T06:55:22;94075.53;;;16.11;100.00
6433;BME280;3249;42.690;23.260;2023-05-21T06:58:15;94076.06;;;16.13;100.00
6433;BME280;3249;42.690;23.260;2023-05-21T07:00:44;94071.22;;;16.31;100.00
6433;BME280;3249;42.690;23.260;2023-05-21T07:03:14;94077.16;;;16.27;100.00
6433;BME280;3249;42.690;23.260;2023-05-21T07:05:43;94075.97;;;16.69;100.00
6433;BME280;3249;42.690;23.260;2023-05-21T07:08:11;94077.03;;;16.78;100.00
6433;BME280;3249;42.690;23.260;2023-05-21T07:10:44;94069.00;;;16.85;100.00
6433;BME280;3249;42.690;23.260;2023-05-21T07:13:14;94071.78;;;16.53;100.00
6433;BME280;3249;42.690;23.260;2023-05-21T07:15:44;94054.91;;;16.46;100.00
6433;BME280;3249;42.690;23.260;2023-05-21T07:18:13;94047.91;;;16.66;100.00
6433;BME280;3249;42.690;23.260;2023-05-21T07:20:43;94046.09;;;16.87;100.00
6433;BME280;3249;42.690;23.260;2023-05-21T07:23:14;94078.59;;;17.09;100.00
6433;BME280;3249;42.690;23.260;2023-05-21T07:25:47;94076.50;;;17.06;98.06
6433;BME280;3249;42.690;23.260;2023-05-21T07:28:18;94076.00;;;17.34;100.00
6433;BME280;3249;42.690;23.260;2023-05-21T07:30:47;94079.13;;;17.21;100.00
6433;BME280;3249;42.690;23.260;2023-05-21T07:33:20;94085.88;;;17.52;96.55
6433;BME280;3249;42.690;23.260;2023-05-21T07:35:51;94078.63;;;17.54;98.09
6433;BME280;3249;42.690;23.260;2023-05-21T07:38:22;94038.53;;;17.55;100.00
6433;BME280;3249;42.690;23.260;2023-05-21T07:40:53;94080.50;;;18.13;87.79
6433;BME280;3249;42.690;23.260;2023-05-21T07:43:22;94086.06;;;17.91;88.59
6433;BME280;3249;42.690;23.260;2023-05-21T07:45:51;94073.03;;;17.96;91.39
6433;BME280;3249;42.690;23.260;2023-05-21T07:48:20;94067.28;;;18.04;94.06
6433;BME280;3249;42.690;23.260;2023-05-21T07:50:56;94084.66;;;18.19;98.77
6433;BME280;3249;42.690;23.260;2023-05-21T07:53:25;94071.72;;;17.98;88.60
6433;BME280;3249;42.690;23.260;2023-05-21T07:56:02;94067.06;;;17.90;91.51
6433;BME280;3249;42.690;23.260;2023-05-21T07:58:32;94068.84;;;18.00;89.97
6433;BME280;3249;42.690;23.260;2023-05-21T08:01:01;94067.22;;;18.14;92.88
6433;BME280;3249;42.690;23.260;2023-05-21T08:03:31;94071.06;;;18.37;92.41
6433;BME280;3249;42.690;23.260;2023-05-21T08:06:01;94071.00;;;18.47;82.68
6433;BME280;3249;42.690;23.260;2023-05-21T08:08:31;94071.34;;;18.79;84.80
6433;BME280;3249;42.690;23.260;2023-05-21T08:11:03;94071.19;;;18.99;78.77
6433;BME280;3249;42.690;23.260;2023-05-21T08:13:33;94061.22;;;18.67;77.63
6433;BME280;3249;42.690;23.260;2023-05-21T08:16:05;94082.91;;;18.63;70.46
6433;BME280;3249;42.690;23.260;2023-05-21T08:18:34;94086.13;;;18.45;57.53
6433;BME280;3249;42.690;23.260;2023-05-21T08:21:03;94100.78;;;18.31;55.64
6433;BME280;3249;42.690;23.260;2023-05-21T08:23:32;94091.63;;;18.33;53.52
6433;BME280;3249;42.690;23.260;2023-05-21T08:26:03;94083.50;;;18.50;54.06
6433;BME280;3249;42.690;23.260;2023-05-21T08:28:36;94070.75;;;18.48;52.31
6433;BME280;3249;42.690;23.260;2023-05-21T08:31:06;94083.41;;;18.65;51.08
6433;BME280;3249;42.690;23.260;2023-05-21T08:33:36;94073.69;;;18.75;48.98
6433;BME280;3249;42.690;23.260;2023-05-21T08:36:06;94066.31;;;18.87;50.40
6433;BME280;3249;42.690;23.260;2023-05-21T08:38:39;94087.06;;;19.02;47.38
6433;BME280;3249;42.690;23.260;2023-05-21T08:41:17;94088.53;;;18.80;48.96
6433;BME280;3249;42.690;23.260;2023-05-21T08:43:55;94086.06;;;18.60;46.96
6433;BME280;3249;42.690;23.260;2023-05-21T08:46:28;94094.19;;;18.92;48.47
6433;BME280;3249;42.690;23.260;2023-05-21T08:49:01;94089.84;;;19.16;51.80
6433;BME280;3249;42.690;23.260;2023-05-21T08:51:32;94086.44;;;19.20;47.30
6433;BME280;3249;42.690;23.260;2023-05-21T08:54:03;94091.84;;;19.29;48.22
6433;BME280;3249;42.690;23.260;2023-05-21T08:56:34;94085.63;;;19.25;44.05
6433;BME280;3249;42.690;23.260;2023-05-21T08:59:06;94094.34;;;19.44;47.22
6433;BME280;3249;42.690;23.260;2023-05-21T09:01:37;94086.44;;;19.54;43.76
6433;BME280;3249;42.690;23.260;2023-05-21T09:04:19;94081.50;;;19.76;43.16
6433;BME280;3249;42.690;23.260;2023-05-21T09:06:53;94063.75;;;19.73;44.20
6433;BME280;3249;42.690;23.260;2023-05-21T09:09:46;94076.63;;;19.93;41.75
6433;BME280;3249;42.690;23.260;2023-05-21T09:12:19;94095.59;;;20.03;42.50
6433;BME280;3249;42.690;23.260;2023-05-21T09:14:48;94090.25;;;19.90;42.02
6433;BME280;3249;42.690;23.260;2023-05-21T09:17:21;94079.81;;;19.90;46.57
6433;BME280;3249;42.690;23.260;2023-05-21T09:20:09;94069.81;;;19.97;45.69
6433;BME280;3249;42.690;23.260;2023-05-21T09:22:44;94092.53;;;20.20;46.46
6433;BME280;3249;42.690;23.260;2023-05-21T09:25:14;94091.63;;;20.06;46.32
6433;BME280;3249;42.690;23.260;2023-05-21T09:27:47;94093.81;;;20.22;48.88
6433;BME280;3249;42.690;23.260;2023-05-21T09:30:17;94075.94;;;20.11;42.53
6433;BME280;3249;42.690;23.260;2023-05-21T09:32:51;94099.78;;;20.46;41.92
6433;BME280;3249;42.690;23.260;2023-05-21T09:35:21;94091.03;;;20.56;43.25
6433;BME280;3249;42.690;23.260;2023-05-21T09:37:52;94066.25;;;20.06;42.88
6433;BME280;3249;42.690;23.260;2023-05-21T09:40:22;94087.56;;;20.42;43.21
6433;BME280;3249;42.690;23.260;2023-05-21T09:42:54;94087.16;;;20.72;43.89
6433;BME280;3249;42.690;23.260;2023-05-21T09:45:24;94080.53;;;20.61;40.82
6433;BME280;3249;42.690;23.260;2023-05-21T09:47:56;94085.97;;;20.64;39.76
6433;BME280;3249;42.690;23.260;2023-05-21T09:50:28;94093.81;;;20.46;37.52
6433;BME280;3249;42.690;23.260;2023-05-21T09:52:56;94080.56;;;20.37;36.56
6433;BME280;3249;42.690;23.260;2023-05-21T09:55:25;94096.91;;;20.48;36.97
6433;BME280;3249;42.690;23.260;2023-05-21T09:57:57;94075.78;;;20.63;37.72
6433;BME280;3249;42.690;23.260;2023-05-21T10:00:30;94084.84;;;20.70;37.47
6433;BME280;3249;42.690;23.260;2023-05-21T10:03:00;94085.22;;;21.01;39.57
6433;BME280;3249;42.690;23.260;2023-05-21T10:05:29;94085.97;;;21.20;36.01
6433;BME280;3249;42.690;23.260;2023-05-21T10:08:00;94093.28;;;21.04;35.52
6433;BME280;3249;42.690;23.260;2023-05-21T10:10:30;94080.47;;;21.03;36.56
6433;BME280;3249;42.690;23.260;2023-05-21T10:13:04;94081.69;;;21.10;35.71
6433;BME280;3249;42.690;23.260;2023-05-21T10:15:37;94081.94;;;20.90;35.77
6433;BME280;3249;42.690;23.260;2023-05-21T10:18:07;94074.16;;;21.04;36.36
6433;BME280;3249;42.690;23.260;2023-05-21T10:20:38;94076.41;;;21.29;38.47
6433;BME280;3249;42.690;23.260;2023-05-21T10:23:08;94069.34;;;21.11;34.63
6433;BME280;3249;42.690;23.260;2023-05-21T10:25:39;94073.28;;;21.27;36.00
6433;BME280;3249;42.690;23.260;2023-05-21T10:28:15;94074.84;;;21.28;34.73
6433;BME280;3249;42.690;23.260;2023-05-21T10:30:45;94062.00;;;21.13;35.55
6433;BME280;3249;42.690;23.260;2023-05-21T10:33:14;94073.88;;;21.24;35.57
6433;BME280;3249;42.690;23.260;2023-05-21T10:35:45;94072.47;;;21.13;35.14
6433;BME280;3249;42.690;23.260;2023-05-21T10:38:17;94069.34;;;21.11;36.06
6433;BME280;3249;42.690;23.260;2023-05-21T10:40:48;94053.38;;;21.12;35.57
6433;BME280;3249;42.690;23.260;2023-05-21T10:43:39;94067.75;;;21.28;36.04
6433;BME280;3249;42.690;23.260;2023-05-21T10:49:25;94069.56;;;21.14;37.58
6433;BME280;3249;42.690;23.260;2023-05-21T10:52:05;94067.00;;;21.28;36.16
6433;BME280;3249;42.690;23.260;2023-05-21T10:54:51;94070.84;;;21.17;36.69
6433;BME280;3249;42.690;23.260;2023-05-21T10:57:44;94066.78;;;21.24;36.65
6433;BME280;3249;42.690;23.260;2023-05-21T11:00:23;94066.41;;;21.31;35.97
6433;BME280;3249;42.690;23.260;2023-05-21T11:02:53;94066.31;;;21.22;37.18
6433;BME280;3249;42.690;23.260;2023-05-21T11:05:37;94071.75;;;20.89;37.35
6433;BME280;3249;42.690;23.260;2023-05-21T11:08:25;94064.28;;;20.82;39.35
6433;BME280;3249;42.690;23.260;2023-05-21T11:10:57;94063.28;;;20.78;38.46
6433;BME280;3249;42.690;23.260;2023-05-21T11:13:27;94068.81;;;20.77;38.96
6433;BME280;3249;42.690;23.260;2023-05-21T11:16:12;94060.94;;;20.77;38.79
6433;BME280;3249;42.690;23.260;2023-05-21T11:19:00;94055.38;;;20.65;39.94
6433;BME280;3249;42.690;23.260;2023-05-21T11:21:29;94042.63;;;20.40;39.50
6433;BME280;3249;42.690;23.260;2023-05-21T11:24:01;94046.81;;;20.41;40.65
6433;BME280;3249;42.690;23.260;2023-05-21T11:26:58;94047.28;;;20.43;41.47
6433;BME280;3249;42.690;23.260;2023-05-21T11:29:38;94043.75;;;20.34;41.41
6433;BME280;3249;42.690;23.260;2023-05-21T11:32:12;94049.53;;;20.31;40.48
6433;BME280;3249;42.690;23.260;2023-05-21T11:34:46;94039.59;;;20.51;41.61
6433;BME280;3249;42.690;23.260;2023-05-21T11:37:36;94038.19;;;20.59;43.54
6433;BME280;3249;42.690;23.260;2023-05-21T11:40:21;94034.56;;;20.92;40.08
6433;BME280;3249;42.690;23.260;2023-05-21T11:42:53;94035.28;;;20.97;40.17
6433;BME280;3249;42.690;23.260;2023-05-21T11:45:26;94032.47;;;20.94;41.29
6433;BME280;3249;42.690;23.260;2023-05-21T11:47:59;94031.13;;;20.41;46.35
6433;BME280;3249;42.690;23.260;2023-05-21T11:50:28;94032.00;;;20.13;43.98
6433;BME280;3249;42.690;23.260;2023-05-21T11:52:59;94030.06;;;20.42;44.61
6433;BME280;3249;42.690;23.260;2023-05-21T11:55:28;94023.53;;;20.21;45.16
6433;BME280;3249;42.690;23.260;2023-05-21T11:57:58;94020.63;;;19.99;49.38
6433;BME280;3249;42.690;23.260;2023-05-21T12:00:27;94021.56;;;20.08;47.51
6433;BME280;3249;42.690;23.260;2023-05-21T12:02:59;94019.94;;;19.70;48.06
6433;BME280;3249;42.690;23.260;2023-05-21T12:05:28;94018.47;;;19.59;50.11
6433;BME280;3249;42.690;23.260;2023-05-21T12:07:57;94022.41;;;19.80;50.49
6433;BME280;3249;42.690;23.260;2023-05-21T12:10:26;94012.00;;;19.98;51.12
6433;BME280;3249;42.690;23.260;2023-05-21T12:12:55;94014.84;;;20.02;51.72
6433;BME280;3249;42.690;23.260;2023-05-21T12:15:25;94011.63;;;19.86;51.10
6433;BME280;3249;42.690;23.260;2023-05-21T12:17:54;93980.47;;;19.24;58.94
6433;BME280;3249;42.690;23.260;2023-05-21T12:20:30;94002.03;;;19.35;60.39
6433;BME280;3249;42.690;23.260;2023-05-21T12:22:59;93993.53;;;19.48;59.27
6433;BME280;3249;42.690;23.260;2023-05-21T12:25:28;94001.78;;;19.78;63.03
6433;BME280;3249;42.690;23.260;2023-05-21T12:27:58;94014.09;;;19.78;63.96
6433;BME280;3249;42.690;23.260;2023-05-21T12:30:28;94014.81;;;19.60;56.73
6433;BME280;3249;42.690;23.260;2023-05-21T12:32:58;93973.84;;;19.32;59.35
6433;BME280;3249;42.690;23.260;2023-05-21T12:35:31;94004.28;;;19.65;59.16
6433;BME280;3249;42.690;23.260;2023-05-21T12:38:01;93991.31;;;19.60;61.93
6433;BME280;3249;42.690;23.260;2023-05-21T12:40:34;93993.84;;;19.65;62.13
6433;BME280;3249;42.690;23.260;2023-05-21T12:43:05;93996.03;;;19.81;57.50
6433;BME280;3249;42.690;23.260;2023-05-21T12:45:34;93994.22;;;19.77;58.41
6433;BME280;3249;42.690;23.260;2023-05-21T12:48:04;93998.53;;;19.68;58.37
6433;BME280;3249;42.690;23.260;2023-05-21T12:50:38;93996.19;;;19.66;60.33
6433;BME280;3249;42.690;23.260;2023-05-21T12:53:08;93997.09;;;19.80;54.36
6433;BME280;3249;42.690;23.260;2023-05-21T12:55:38;93998.16;;;19.79;56.45
6433;BME280;3249;42.690;23.260;2023-05-21T12:58:11;93984.69;;;19.44;54.52
6433;BME280;3249;42.690;23.260;2023-05-21T13:00:42;93995.44;;;19.66;54.24
6433;BME280;3249;42.690;23.260;2023-05-21T13:03:11;93996.88;;;19.53;55.51
6433;BME280;3249;42.690;23.260;2023-05-21T13:05:43;93992.00;;;19.13;56.51
6433;BME280;3249;42.690;23.260;2023-05-21T13:08:13;93987.19;;;18.97;58.78
6433;BME280;3249;42.690;23.260;2023-05-21T13:10:42;93978.88;;;18.95;60.48
6433;BME280;3249;42.690;23.260;2023-05-21T13:13:11;93988.63;;;18.84;64.57
6433;BME280;3249;42.690;23.260;2023-05-21T13:15:40;93989.38;;;18.90;66.21
6433;BME280;3249;42.690;23.260;2023-05-21T13:18:09;93984.25;;;19.03;69.37
6433;BME280;3249;42.690;23.260;2023-05-21T13:20:43;93979.81;;;18.75;71.67
6433;BME280;3249;42.690;23.260;2023-05-21T13:23:13;93986.97;;;18.60;72.23
6433;BME280;3249;42.690;23.260;2023-05-21T13:25:42;93950.66;;;18.35;75.55
6433;BME280;3249;42.690;23.260;2023-05-21T13:28:11;93971.97;;;18.47;74.02
6433;BME280;3249;42.690;23.260;2023-05-21T13:30:41;93967.81;;;18.41;73.37